< Typhoon 202117 2021 Season Typhoon 202119 >
Typhoon 202118 (KOMPASU)
General InformationTrack Information on Google MapsDetailed Wind InformationForecast History on Google MapsAccess Analytics MapList of All Images || NewsDisaster Info.WeblogTrackbackTyphoon FrontTwiphoonTyphoon Now!Typhoon ImaginationJMA Disaster Info. XMLResourceGoogle EarthGE AnimationAtom FeedGeoJSON
Detalied Best Track (Time Zone = UTC)
Year Month Day Hour Lat. Long. Pressure (hPa) Wind (kt) Class Image Chart
2021 10 7 00 13.7 136.5 1002 0 2 Image Chart
2021 10 7 06 13.7 135.7 1002 0 2 Image Chart
2021 10 7 12 13.8 134.8 1002 0 2 Image Chart
2021 10 7 18 14.0 134.2 1000 0 2 Image Chart
2021 10 8 00 14.2 133.6 996 35 3 Image Chart
2021 10 8 06 14.6 132.8 994 35 3 Image Chart
2021 10 8 12 14.8 132.3 994 35 3 Image Chart
2021 10 8 18 15.2 131.7 992 40 3 Image Chart
2021 10 9 00 15.5 131.1 992 40 3 Image Chart
2021 10 9 06 15.9 130.5 992 40 3 Image Chart
2021 10 9 12 16.2 130.1 990 45 3 Image Chart
2021 10 9 18 16.7 129.4 990 45 3 Image Chart
2021 10 10 00 17.1 128.9 990 45 3 Image Chart
2021 10 10 06 17.7 127.9 990 45 3 Image Chart
2021 10 10 12 18.2 126.9 985 45 3 Image Chart
2021 10 10 18 18.4 125.8 980 50 4 Image Chart
2021 10 11 00 18.6 124.7 980 50 4 Image Chart
2021 10 11 06 18.8 123.0 980 50 4 Image Chart
2021 10 11 12 18.9 121.7 980 50 4 Image Chart
2021 10 11 18 18.8 120.5 975 55 4 Image Chart
2021 10 12 00 18.7 118.9 975 55 4 Image Chart
2021 10 12 06 18.9 117.8 975 55 4 Image Chart
2021 10 12 12 19.0 116.1 975 55 4 Image Chart
2021 10 12 18 19.2 114.5 975 55 4 Image Chart
2021 10 13 00 19.2 113.0 975 55 4 Image Chart
2021 10 13 06 19.2 111.0 975 55 4 Image Chart
2021 10 13 12 18.7 109.3 985 45 3 Image Chart
2021 10 13 18 18.7 108.5 992 40 3 Image Chart
2021 10 14 00 19.4 107.8 998 35 3 Image Chart
2021 10 14 06 19.6 106.7 1000 35 3 Image Chart
2021 10 14 12 19.2 105.6 1004 0 2 Image Chart
Japan Meteorological Agency Best Track Data | Correction Date : 2022-01-06
< Typhoon 202117 2021 Season Typhoon 202119 >

Help